sensor_id;sensor_type;location;lat;lon;timestamp;temperature;humidity
52107;DHT22;38105;52.968;5.974;2023-02-15T00:01:35;1.30;99.90
52107;DHT22;38105;52.968;5.974;2023-02-15T00:04:02;1.20;99.90
52107;DHT22;38105;52.968;5.974;2023-02-15T00:06:27;1.30;99.90
52107;DHT22;38105;52.968;5.974;2023-02-15T00:08:54;1.20;99.90
52107;DHT22;38105;52.968;5.974;2023-02-15T00:11:20;1.10;99.90
52107;DHT22;38105;52.968;5.974;2023-02-15T00:14:25;1.20;99.90
52107;DHT22;38105;52.968;5.974;2023-02-15T00:16:51;1.30;99.90
52107;DHT22;38105;52.968;5.974;2023-02-15T00:19:19;1.20;99.90
52107;DHT22;38105;52.968;5.974;2023-02-15T00:21:46;1.30;99.90
52107;DHT22;38105;52.968;5.974;2023-02-15T00:24:13;1.00;99.90
52107;DHT22;38105;52.968;5.974;2023-02-15T00:26:41;1.20;99.90
52107;DHT22;38105;52.968;5.974;2023-02-15T00:29:08;1.20;99.90
52107;DHT22;38105;52.968;5.974;2023-02-15T00:31:34;1.10;99.90
52107;DHT22;38105;52.968;5.974;2023-02-15T00:34:10;1.10;99.90
52107;DHT22;38105;52.968;5.974;2023-02-15T00:36:36;1.00;99.90
52107;DHT22;38105;52.968;5.974;2023-02-15T00:39:02;1.00;99.90
52107;DHT22;38105;52.968;5.974;2023-02-15T00:41:30;1.00;99.90
52107;DHT22;38105;52.968;5.974;2023-02-15T00:43:56;0.90;99.90
52107;DHT22;38105;52.968;5.974;2023-02-15T00:46:22;1.00;99.90
52107;DHT22;38105;52.968;5.974;2023-02-15T00:48:47;0.90;99.90
52107;DHT22;38105;52.968;5.974;2023-02-15T00:51:13;0.90;99.90
52107;DHT22;38105;52.968;5.974;2023-02-15T00:53:39;0.90;99.90
52107;DHT22;38105;52.968;5.974;2023-02-15T00:56:05;1.00;99.90
52107;DHT22;38105;52.968;5.974;2023-02-15T00:58:30;0.80;99.90
52107;DHT22;38105;52.968;5.974;2023-02-15T01:01:05;0.70;99.90
52107;DHT22;38105;52.968;5.974;2023-02-15T01:03:32;0.80;99.90
52107;DHT22;38105;52.968;5.974;2023-02-15T01:05:58;0.90;99.90
52107;DHT22;38105;52.968;5.974;2023-02-15T01:08:24;0.80;99.90
52107;DHT22;38105;52.968;5.974;2023-02-15T01:10:49;0.60;99.90
52107;DHT22;38105;52.968;5.974;2023-02-15T01:13:15;0.80;99.90
52107;DHT22;38105;52.968;5.974;2023-02-15T01:15:42;0.70;99.90
52107;DHT22;38105;52.968;5.974;2023-02-15T01:18:08;0.50;99.90
52107;DHT22;38105;52.968;5.974;2023-02-15T01:20:36;0.40;99.90
52107;DHT22;38105;52.968;5.974;2023-02-15T01:23:05;0.50;99.90
52107;DHT22;38105;52.968;5.974;2023-02-15T01:25:34;0.70;99.90
52107;DHT22;38105;52.968;5.974;2023-02-15T01:28:00;0.70;99.90
52107;DHT22;38105;52.968;5.974;2023-02-15T01:30:26;0.70;99.90
52107;DHT22;38105;52.968;5.974;2023-02-15T01:32:52;0.50;99.90
52107;DHT22;38105;52.968;5.974;2023-02-15T01:35:17;0.50;99.90
52107;DHT22;38105;52.968;5.974;2023-02-15T01:37:43;0.60;99.90
52107;DHT22;38105;52.968;5.974;2023-02-15T01:40:13;0.50;99.90
52107;DHT22;38105;52.968;5.974;2023-02-15T01:42:40;0.50;99.90
52107;DHT22;38105;52.968;5.974;2023-02-15T01:50:28;0.70;99.90
52107;DHT22;38105;52.968;5.974;2023-02-15T01:55:34;0.50;99.90
52107;DHT22;38105;52.968;5.974;2023-02-15T01:58:01;0.50;99.90
52107;DHT22;38105;52.968;5.974;2023-02-15T02:00:28;0.50;99.90
52107;DHT22;38105;52.968;5.974;2023-02-15T02:02:55;0.40;99.90
52107;DHT22;38105;52.968;5.974;2023-02-15T02:05:22;0.50;99.90
52107;DHT22;38105;52.968;5.974;2023-02-15T02:07:49;0.60;99.90
52107;DHT22;38105;52.968;5.974;2023-02-15T02:10:19;0.40;99.90
52107;DHT22;38105;52.968;5.974;2023-02-15T02:12:47;0.30;99.90
52107;DHT22;38105;52.968;5.974;2023-02-15T02:15:14;0.50;99.90
52107;DHT22;38105;52.968;5.974;2023-02-15T02:20:44;0.30;99.90
52107;DHT22;38105;52.968;5.974;2023-02-15T02:42:02;0.30;99.90
52107;DHT22;38105;52.968;5.974;2023-02-15T02:44:38;0.10;99.90
52107;DHT22;38105;52.968;5.974;2023-02-15T02:49:46;0.10;99.90
52107;DHT22;38105;52.968;5.974;2023-02-15T02:52:48;0.10;99.90
52107;DHT22;38105;52.968;5.974;2023-02-15T02:55:24;0.30;99.90
52107;DHT22;38105;52.968;5.974;2023-02-15T02:58:19;0.30;99.90
52107;DHT22;38105;52.968;5.974;2023-02-15T03:03:28;0.10;99.90
52107;DHT22;38105;52.968;5.974;2023-02-15T03:05:59;0.10;99.90
52107;DHT22;38105;52.968;5.974;2023-02-15T03:08:29;0.00;99.90
52107;DHT22;38105;52.968;5.974;2023-02-15T03:10:59;0.00;99.90
52107;DHT22;38105;52.968;5.974;2023-02-15T03:13:26;0.20;99.90
52107;DHT22;38105;52.968;5.974;2023-02-15T03:15:52;0.20;99.90
52107;DHT22;38105;52.968;5.974;2023-02-15T03:18:47;0.10;99.90
52107;DHT22;38105;52.968;5.974;2023-02-15T03:21:40;0.00;99.90
52107;DHT22;38105;52.968;5.974;2023-02-15T03:24:14;0.20;99.90
52107;DHT22;38105;52.968;5.974;2023-02-15T03:26:41;0.00;99.90
52107;DHT22;38105;52.968;5.974;2023-02-15T03:29:09;0.00;99.90
52107;DHT22;38105;52.968;5.974;2023-02-15T03:31:40;0.10;99.90
52107;DHT22;38105;52.968;5.974;2023-02-15T03:34:10;-0.10;99.90
52107;DHT22;38105;52.968;5.974;2023-02-15T03:42:19;-0.20;99.90
52107;DHT22;38105;52.968;5.974;2023-02-15T03:44:55;-0.30;99.90
52107;DHT22;38105;52.968;5.974;2023-02-15T03:47:27;-0.30;99.90
52107;DHT22;38105;52.968;5.974;2023-02-15T03:50:01;-0.10;99.90
52107;DHT22;38105;52.968;5.974;2023-02-15T03:52:29;-0.20;99.90
52107;DHT22;38105;52.968;5.974;2023-02-15T03:54:56;-0.30;99.90
52107;DHT22;38105;52.968;5.974;2023-02-15T03:57:27;-0.20;99.90
52107;DHT22;38105;52.968;5.974;2023-02-15T04:00:18;-0.10;99.90
52107;DHT22;38105;52.968;5.974;2023-02-15T04:03:18;-0.40;99.90
52107;DHT22;38105;52.968;5.974;2023-02-15T04:05:47;-0.30;99.90
52107;DHT22;38105;52.968;5.974;2023-02-15T04:08:13;-0.40;99.90
52107;DHT22;38105;52.968;5.974;2023-02-15T04:10:39;-0.20;99.90
52107;DHT22;38105;52.968;5.974;2023-02-15T04:13:29;-0.20;99.90
52107;DHT22;38105;52.968;5.974;2023-02-15T04:15:56;-0.30;99.90
52107;DHT22;38105;52.968;5.974;2023-02-15T04:18:38;-0.30;99.90
52107;DHT22;38105;52.968;5.974;2023-02-15T04:21:24;-0.50;99.90
52107;DHT22;38105;52.968;5.974;2023-02-15T04:24:09;-0.40;99.90
52107;DHT22;38105;52.968;5.974;2023-02-15T04:26:54;-0.50;99.90
52107;DHT22;38105;52.968;5.974;2023-02-15T04:29:22;-0.70;99.90
52107;DHT22;38105;52.968;5.974;2023-02-15T04:31:49;-0.60;99.90
52107;DHT22;38105;52.968;5.974;2023-02-15T04:34:15;-0.80;99.90
52107;DHT22;38105;52.968;5.974;2023-02-15T04:36:41;-0.80;99.90
52107;DHT22;38105;52.968;5.974;2023-02-15T04:39:08;-0.80;99.90
52107;DHT22;38105;52.968;5.974;2023-02-15T04:41:34;-0.80;99.90
52107;DHT22;38105;52.968;5.974;2023-02-15T04:44:01;-0.40;99.90
52107;DHT22;38105;52.968;5.974;2023-02-15T04:46:27;-0.10;99.90
52107;DHT22;38105;52.968;5.974;2023-02-15T04:48:53;-0.40;99.90
52107;DHT22;38105;52.968;5.974;2023-02-15T04:51:19;0.30;99.90
52107;DHT22;38105;52.968;5.974;2023-02-15T04:53:44;-0.10;99.90
52107;DHT22;38105;52.968;5.974;2023-02-15T04:56:10;0.10;99.90
52107;DHT22;38105;52.968;5.974;2023-02-15T04:58:35;0.00;99.90
52107;DHT22;38105;52.968;5.974;2023-02-15T05:01:02;0.50;99.90
52107;DHT22;38105;52.968;5.974;2023-02-15T05:03:29;0.80;99.90
52107;DHT22;38105;52.968;5.974;2023-02-15T05:05:54;0.90;99.90
52107;DHT22;38105;52.968;5.974;2023-02-15T05:08:20;0.90;99.90
52107;DHT22;38105;52.968;5.974;2023-02-15T05:10:48;0.60;99.90
52107;DHT22;38105;52.968;5.974;2023-02-15T05:13:14;0.90;99.90
52107;DHT22;38105;52.968;5.974;2023-02-15T05:15:39;0.60;99.90
52107;DHT22;38105;52.968;5.974;2023-02-15T05:18:05;0.60;99.90
52107;DHT22;38105;52.968;5.974;2023-02-15T05:20:33;1.10;99.90
52107;DHT22;38105;52.968;5.974;2023-02-15T05:22:58;0.70;99.90
52107;DHT22;38105;52.968;5.974;2023-02-15T05:25:24;0.90;99.90
52107;DHT22;38105;52.968;5.974;2023-02-15T05:28:11;0.70;99.90
52107;DHT22;38105;52.968;5.974;2023-02-15T05:31:13;0.90;99.90
52107;DHT22;38105;52.968;5.974;2023-02-15T05:33:39;1.40;99.90
52107;DHT22;38105;52.968;5.974;2023-02-15T05:36:06;1.20;99.90
52107;DHT22;38105;52.968;5.974;2023-02-15T05:38:32;1.30;99.90
52107;DHT22;38105;52.968;5.974;2023-02-15T05:40:58;0.90;99.90
52107;DHT22;38105;52.968;5.974;2023-02-15T05:43:25;1.50;99.90
52107;DHT22;38105;52.968;5.974;2023-02-15T05:45:52;1.40;99.90
52107;DHT22;38105;52.968;5.974;2023-02-15T05:48:20;1.10;99.90
52107;DHT22;38105;52.968;5.974;2023-02-15T05:50:46;0.90;99.90
52107;DHT22;38105;52.968;5.974;2023-02-15T05:53:12;0.90;99.90
52107;DHT22;38105;52.968;5.974;2023-02-15T05:55:40;1.40;99.90
52107;DHT22;38105;52.968;5.974;2023-02-15T05:58:06;1.20;99.90
52107;DHT22;38105;52.968;5.974;2023-02-15T06:00:33;0.90;99.90
52107;DHT22;38105;52.968;5.974;2023-02-15T06:02:59;1.60;99.90
52107;DHT22;38105;52.968;5.974;2023-02-15T06:05:25;1.60;99.90
52107;DHT22;38105;52.968;5.974;2023-02-15T06:07:51;1.60;99.90
52107;DHT22;38105;52.968;5.974;2023-02-15T06:10:16;0.90;99.90
52107;DHT22;38105;52.968;5.974;2023-02-15T06:12:44;1.50;99.90
52107;DHT22;38105;52.968;5.974;2023-02-15T06:15:10;1.30;99.90
52107;DHT22;38105;52.968;5.974;2023-02-15T06:17:35;1.30;99.90
52107;DHT22;38105;52.968;5.974;2023-02-15T06:20:01;1.50;99.90
52107;DHT22;38105;52.968;5.974;2023-02-15T06:22:26;1.50;99.90
52107;DHT22;38105;52.968;5.974;2023-02-15T06:24:52;0.80;99.90
52107;DHT22;38105;52.968;5.974;2023-02-15T06:27:18;1.30;99.90
52107;DHT22;38105;52.968;5.974;2023-02-15T06:29:43;1.10;99.90
52107;DHT22;38105;52.968;5.974;2023-02-15T06:32:09;1.00;99.90
52107;DHT22;38105;52.968;5.974;2023-02-15T06:34:34;1.20;99.90
52107;DHT22;38105;52.968;5.974;2023-02-15T06:37:00;1.50;99.90
52107;DHT22;38105;52.968;5.974;2023-02-15T06:39:26;1.50;99.90
52107;DHT22;38105;52.968;5.974;2023-02-15T06:41:51;0.80;99.90
52107;DHT22;38105;52.968;5.974;2023-02-15T06:44:17;0.90;99.90
52107;DHT22;38105;52.968;5.974;2023-02-15T06:46:42;1.00;99.90
52107;DHT22;38105;52.968;5.974;2023-02-15T06:49:08;1.30;99.90
52107;DHT22;38105;52.968;5.974;2023-02-15T06:51:34;0.80;99.90
52107;DHT22;38105;52.968;5.974;2023-02-15T06:54:00;0.80;99.90
52107;DHT22;38105;52.968;5.974;2023-02-15T06:56:25;1.40;99.90
52107;DHT22;38105;52.968;5.974;2023-02-15T06:58:51;1.00;99.90
52107;DHT22;38105;52.968;5.974;2023-02-15T07:01:18;1.40;99.90
52107;DHT22;38105;52.968;5.974;2023-02-15T07:03:44;1.30;99.90
52107;DHT22;38105;52.968;5.974;2023-02-15T07:06:10;1.50;99.90
52107;DHT22;38105;52.968;5.974;2023-02-15T07:08:37;1.30;99.90
52107;DHT22;38105;52.968;5.974;2023-02-15T07:11:04;1.10;99.90
52107;DHT22;38105;52.968;5.974;2023-02-15T07:13:50;1.50;99.90
52107;DHT22;38105;52.968;5.974;2023-02-15T07:16:18;1.40;99.90
52107;DHT22;38105;52.968;5.974;2023-02-15T07:18:43;0.90;99.90
52107;DHT22;38105;52.968;5.974;2023-02-15T07:21:09;1.60;99.90
52107;DHT22;38105;52.968;5.974;2023-02-15T07:23:36;1.20;99.90
52107;DHT22;38105;52.968;5.974;2023-02-15T07:26:03;1.70;99.90
52107;DHT22;38105;52.968;5.974;2023-02-15T07:28:29;1.20;99.90
52107;DHT22;38105;52.968;5.974;2023-02-15T07:30:54;1.10;99.90
52107;DHT22;38105;52.968;5.974;2023-02-15T07:33:20;1.90;99.90
52107;DHT22;38105;52.968;5.974;2023-02-15T07:35:51;2.50;99.90
52107;DHT22;38105;52.968;5.974;2023-02-15T07:38:17;2.80;99.90
52107;DHT22;38105;52.968;5.974;2023-02-15T07:40:43;2.80;99.90
52107;DHT22;38105;52.968;5.974;2023-02-15T07:43:09;3.40;99.90
52107;DHT22;38105;52.968;5.974;2023-02-15T07:45:35;3.60;99.90
52107;DHT22;38105;52.968;5.974;2023-02-15T07:48:02;4.00;99.90
52107;DHT22;38105;52.968;5.974;2023-02-15T07:50:28;4.20;99.90
52107;DHT22;38105;52.968;5.974;2023-02-15T07:52:54;4.30;99.90
52107;DHT22;38105;52.968;5.974;2023-02-15T07:55:19;4.40;99.90
52107;DHT22;38105;52.968;5.974;2023-02-15T07:57:47;4.30;99.90
52107;DHT22;38105;52.968;5.974;2023-02-15T08:00:14;4.50;99.90
52107;DHT22;38105;52.968;5.974;2023-02-15T08:02:40;4.80;99.90
52107;DHT22;38105;52.968;5.974;2023-02-15T08:05:06;5.20;99.90
52107;DHT22;38105;52.968;5.974;2023-02-15T08:07:32;5.60;99.90
52107;DHT22;38105;52.968;5.974;2023-02-15T08:09:58;6.00;99.90
52107;DHT22;38105;52.968;5.974;2023-02-15T08:12:27;6.20;99.90
52107;DHT22;38105;52.968;5.974;2023-02-15T08:14:53;6.40;99.90
52107;DHT22;38105;52.968;5.974;2023-02-15T08:17:18;6.50;99.90
52107;DHT22;38105;52.968;5.974;2023-02-15T08:19:44;6.30;99.90
52107;DHT22;38105;52.968;5.974;2023-02-15T08:22:13;6.50;99.90
52107;DHT22;38105;52.968;5.974;2023-02-15T08:24:39;6.70;99.90
52107;DHT22;38105;52.968;5.974;2023-02-15T08:27:09;7.00;99.90
52107;DHT22;38105;52.968;5.974;2023-02-15T08:29:37;7.20;99.90
52107;DHT22;38105;52.968;5.974;2023-02-15T08:32:08;7.70;99.90
52107;DHT22;38105;52.968;5.974;2023-02-15T08:34:37;7.80;99.90
52107;DHT22;38105;52.968;5.974;2023-02-15T08:37:03;7.90;99.90
52107;DHT22;38105;52.968;5.974;2023-02-15T08:39:29;7.90;99.90
52107;DHT22;38105;52.968;5.974;2023-02-15T08:41:55;8.00;99.90
52107;DHT22;38105;52.968;5.974;2023-02-15T08:44:21;7.80;99.90
52107;DHT22;38105;52.968;5.974;2023-02-15T08:46:48;7.60;99.90
52107;DHT22;38105;52.968;5.974;2023-02-15T08:49:17;7.40;99.90
52107;DHT22;38105;52.968;5.974;2023-02-15T08:51:44;7.70;99.90
52107;DHT22;38105;52.968;5.974;2023-02-15T08:54:13;8.30;99.90
52107;DHT22;38105;52.968;5.974;2023-02-15T08:56:41;8.60;99.90
52107;DHT22;38105;52.968;5.974;2023-02-15T08:59:18;8.90;99.90
52107;DHT22;38105;52.968;5.974;2023-02-15T09:01:45;9.20;99.90
52107;DHT22;38105;52.968;5.974;2023-02-15T09:04:11;9.80;99.90
52107;DHT22;38105;52.968;5.974;2023-02-15T09:06:39;10.30;99.90
52107;DHT22;38105;52.968;5.974;2023-02-15T09:09:05;10.90;99.90
52107;DHT22;38105;52.968;5.974;2023-02-15T09:11:35;11.20;99.90
52107;DHT22;38105;52.968;5.974;2023-02-15T09:14:03;11.10;99.90
52107;DHT22;38105;52.968;5.974;2023-02-15T09:16:31;11.70;99.90
52107;DHT22;38105;52.968;5.974;2023-02-15T09:18:57;11.80;99.90
52107;DHT22;38105;52.968;5.974;2023-02-15T09:21:25;12.00;99.90
52107;DHT22;38105;52.968;5.974;2023-02-15T09:23:54;12.00;99.90
52107;DHT22;38105;52.968;5.974;2023-02-15T09:26:22;11.60;99.90
52107;DHT22;38105;52.968;5.974;2023-02-15T09:28:52;12.20;99.90
52107;DHT22;38105;52.968;5.974;2023-02-15T09:31:22;12.10;99.90
52107;DHT22;38105;52.968;5.974;2023-02-15T09:33:49;11.80;99.90
52107;DHT22;38105;52.968;5.974;2023-02-15T09:36:20;11.70;99.90
52107;DHT22;38105;52.968;5.974;2023-02-15T09:38:48;11.80;99.90
52107;DHT22;38105;52.968;5.974;2023-02-15T10:00:26;10.20;99.90
52107;DHT22;38105;52.968;5.974;2023-02-15T10:05:52;9.70;99.90
52107;DHT22;38105;52.968;5.974;2023-02-15T10:17:08;9.50;99.90
52107;DHT22;38105;52.968;5.974;2023-02-15T10:28:37;9.80;99.90
52107;DHT22;38105;52.968;5.974;2023-02-15T10:31:23;9.60;99.90
52107;DHT22;38105;52.968;5.974;2023-02-15T10:37:03;9.60;99.90
52107;DHT22;38105;52.968;5.974;2023-02-15T10:40:03;9.60;99.90
52107;DHT22;38105;52.968;5.974;2023-02-15T10:45:12;9.70;99.90
52107;DHT22;38105;52.968;5.974;2023-02-15T10:50:50;9.60;99.90
52107;DHT22;38105;52.968;5.974;2023-02-15T11:07:17;9.90;99.90
52107;DHT22;38105;52.968;5.974;2023-02-15T11:12:33;9.90;99.90
52107;DHT22;38105;52.968;5.974;2023-02-15T11:15:25;10.00;99.90
52107;DHT22;38105;52.968;5.974;2023-02-15T11:18:02;10.10;99.90
52107;DHT22;38105;52.968;5.974;2023-02-15T11:20:35;10.20;99.90
52107;DHT22;38105;52.968;5.974;2023-02-15T11:23:13;10.40;99.90
52107;DHT22;38105;52.968;5.974;2023-02-15T11:25:44;10.40;99.90
52107;DHT22;38105;52.968;5.974;2023-02-15T11:28:22;10.50;99.90
52107;DHT22;38105;52.968;5.974;2023-02-15T11:30:55;10.40;99.90
52107;DHT22;38105;52.968;5.974;2023-02-15T11:33:35;10.50;99.90
52107;DHT22;38105;52.968;5.974;2023-02-15T11:36:11;10.60;99.90
52107;DHT22;38105;52.968;5.974;2023-02-15T11:38:38;10.80;99.90
52107;DHT22;38105;52.968;5.974;2023-02-15T11:41:15;10.90;99.90
52107;DHT22;38105;52.968;5.974;2023-02-15T11:43:55;11.00;99.90
52107;DHT22;38105;52.968;5.974;2023-02-15T11:46:22;11.10;99.90
52107;DHT22;38105;52.968;5.974;2023-02-15T11:48:47;11.20;99.90
52107;DHT22;38105;52.968;5.974;2023-02-15T11:51:17;11.20;99.90
52107;DHT22;38105;52.968;5.974;2023-02-15T11:53:44;11.30;99.90
52107;DHT22;38105;52.968;5.974;2023-02-15T11:56:19;11.30;99.90
52107;DHT22;38105;52.968;5.974;2023-02-15T11:58:50;11.40;99.90
52107;DHT22;38105;52.968;5.974;2023-02-15T12:01:38;11.10;99.90
52107;DHT22;38105;52.968;5.974;2023-02-15T12:04:25;11.10;99.90
52107;DHT22;38105;52.968;5.974;2023-02-15T12:07:01;11.10;99.90
52107;DHT22;38105;52.968;5.974;2023-02-15T12:11:54;11.00;99.90
52107;DHT22;38105;52.968;5.974;2023-02-15T12:14:54;10.90;99.90
52107;DHT22;38105;52.968;5.974;2023-02-15T12:17:26;11.00;99.90
52107;DHT22;38105;52.968;5.974;2023-02-15T12:22:46;11.00;99.90
52107;DHT22;38105;52.968;5.974;2023-02-15T12:25:39;10.90;99.90
52107;DHT22;38105;52.968;5.974;2023-02-15T12:30:54;10.80;99.90
52107;DHT22;38105;52.968;5.974;2023-02-15T12:33:27;10.70;99.90
52107;DHT22;38105;52.968;5.974;2023-02-15T12:36:04;10.70;99.90
52107;DHT22;38105;52.968;5.974;2023-02-15T12:38:36;10.70;99.90
52107;DHT22;38105;52.968;5.974;2023-02-15T12:41:24;10.70;99.90
52107;DHT22;38105;52.968;5.974;2023-02-15T12:46:28;10.50;99.90
52107;DHT22;38105;52.968;5.974;2023-02-15T12:51:53;10.60;99.90
52107;DHT22;38105;52.968;5.974;2023-02-15T12:56:47;10.60;99.90
52107;DHT22;38105;52.968;5.974;2023-02-15T12:59:14;10.60;99.90
52107;DHT22;38105;52.968;5.974;2023-02-15T13:01:41;10.60;99.90
52107;DHT22;38105;52.968;5.974;2023-02-15T13:04:26;10.60;99.90
52107;DHT22;38105;52.968;5.974;2023-02-15T13:06:55;10.60;99.90
52107;DHT22;38105;52.968;5.974;2023-02-15T13:09:34;10.50;99.90
52107;DHT22;38105;52.968;5.974;2023-02-15T13:14:47;10.50;99.90
52107;DHT22;38105;52.968;5.974;2023-02-15T13:17:16;10.60;99.90
52107;DHT22;38105;52.968;5.974;2023-02-15T13:19:52;10.70;99.90
52107;DHT22;38105;52.968;5.974;2023-02-15T13:22:22;10.70;99.90
52107;DHT22;38105;52.968;5.974;2023-02-15T13:25:22;10.70;99.90
52107;DHT22;38105;52.968;5.974;2023-02-15T13:28:03;10.70;99.90
52107;DHT22;38105;52.968;5.974;2023-02-15T13:30:35;10.60;99.90
52107;DHT22;38105;52.968;5.974;2023-02-15T13:36:00;10.60;99.90
52107;DHT22;38105;52.968;5.974;2023-02-15T13:41:14;10.80;99.90
52107;DHT22;38105;52.968;5.974;2023-02-15T13:46:43;10.80;99.90
52107;DHT22;38105;52.968;5.974;2023-02-15T13:52:36;10.90;99.90
52107;DHT22;38105;52.968;5.974;2023-02-15T13:55:06;10.90;99.90
52107;DHT22;38105;52.968;5.974;2023-02-15T14:00:13;10.90;99.90
52107;DHT22;38105;52.968;5.974;2023-02-15T14:03:06;10.90;99.90
52107;DHT22;38105;52.968;5.974;2023-02-15T14:08:46;10.90;99.90
52107;DHT22;38105;52.968;5.974;2023-02-15T14:14:06;11.00;99.90
52107;DHT22;38105;52.968;5.974;2023-02-15T14:17:03;11.00;99.90
52107;DHT22;38105;52.968;5.974;2023-02-15T14:19:45;11.00;99.90
52107;DHT22;38105;52.968;5.974;2023-02-15T14:22:44;11.00;99.90
52107;DHT22;38105;52.968;5.974;2023-02-15T14:25:18;11.00;99.90
52107;DHT22;38105;52.968;5.974;2023-02-15T14:28:12;11.00;99.90
52107;DHT22;38105;52.968;5.974;2023-02-15T14:30:41;11.00;99.90
52107;DHT22;38105;52.968;5.974;2023-02-15T14:33:23;10.90;99.90
52107;DHT22;38105;52.968;5.974;2023-02-15T14:35:51;11.00;99.90
52107;DHT22;38105;52.968;5.974;2023-02-15T14:38:41;10.90;99.90
52107;DHT22;38105;52.968;5.974;2023-02-15T14:41:20;11.00;99.90
52107;DHT22;38105;52.968;5.974;2023-02-15T14:46:47;11.00;99.90
52107;DHT22;38105;52.968;5.974;2023-02-15T14:49:37;10.90;99.90
52107;DHT22;38105;52.968;5.974;2023-02-15T14:52:10;10.90;99.90
52107;DHT22;38105;52.968;5.974;2023-02-15T15:07:54;10.60;99.90
52107;DHT22;38105;52.968;5.974;2023-02-15T15:12:56;10.50;99.90
52107;DHT22;38105;52.968;5.974;2023-02-15T15:18:04;10.40;99.90
52107;DHT22;38105;52.968;5.974;2023-02-15T15:25:46;10.20;99.90
52107;DHT22;38105;52.968;5.974;2023-02-15T15:42:38;9.90;99.90
52107;DHT22;38105;52.968;5.974;2023-02-15T15:48:11;9.80;99.90
52107;DHT22;38105;52.968;5.974;2023-02-15T15:50:39;9.80;99.90
52107;DHT22;38105;52.968;5.974;2023-02-15T15:53:06;9.70;99.90
52107;DHT22;38105;52.968;5.974;2023-02-15T15:55:38;9.70;99.90
52107;DHT22;38105;52.968;5.974;2023-02-15T15:58:06;9.60;99.90
52107;DHT22;38105;52.968;5.974;2023-02-15T16:00:46;9.50;99.90
52107;DHT22;38105;52.968;5.974;2023-02-15T16:03:26;9.40;99.90
52107;DHT22;38105;52.968;5.974;2023-02-15T16:05:52;9.40;99.90
52107;DHT22;38105;52.968;5.974;2023-02-15T16:08:38;9.40;99.90
52107;DHT22;38105;52.968;5.974;2023-02-15T16:11:29;9.30;99.90
52107;DHT22;38105;52.968;5.974;2023-02-15T16:13:56;9.20;99.90
52107;DHT22;38105;52.968;5.974;2023-02-15T16:16:27;9.20;99.90
52107;DHT22;38105;52.968;5.974;2023-02-15T16:18:55;9.20;99.90
52107;DHT22;38105;52.968;5.974;2023-02-15T16:21:31;9.10;99.90
52107;DHT22;38105;52.968;5.974;2023-02-15T16:26:43;9.00;99.90
52107;DHT22;38105;52.968;5.974;2023-02-15T16:29:18;8.90;99.90
52107;DHT22;38105;52.968;5.974;2023-02-15T16:31:56;8.80;99.90
52107;DHT22;38105;52.968;5.974;2023-02-15T16:34:22;8.70;99.90
52107;DHT22;38105;52.968;5.974;2023-02-15T16:36:47;8.70;99.90
52107;DHT22;38105;52.968;5.974;2023-02-15T16:39:19;8.60;99.90
52107;DHT22;38105;52.968;5.974;2023-02-15T16:41:45;8.50;99.90
52107;DHT22;38105;52.968;5.974;2023-02-15T16:44:18;8.40;99.90
52107;DHT22;38105;52.968;5.974;2023-02-15T16:46:48;8.40;99.90
52107;DHT22;38105;52.968;5.974;2023-02-15T16:49:26;8.30;99.90
52107;DHT22;38105;52.968;5.974;2023-02-15T16:51:59;8.30;99.90
52107;DHT22;38105;52.968;5.974;2023-02-15T16:54:26;8.20;99.90
52107;DHT22;38105;52.968;5.974;2023-02-15T16:56:52;8.20;99.90
52107;DHT22;38105;52.968;5.974;2023-02-15T16:59:35;8.10;99.90
52107;DHT22;38105;52.968;5.974;2023-02-15T17:02:05;8.10;99.90
52107;DHT22;38105;52.968;5.974;2023-02-15T17:04:32;8.00;99.90
52107;DHT22;38105;52.968;5.974;2023-02-15T17:07:06;7.90;99.90
52107;DHT22;38105;52.968;5.974;2023-02-15T17:09:32;7.90;99.90
52107;DHT22;38105;52.968;5.974;2023-02-15T17:11:58;7.90;99.90
52107;DHT22;38105;52.968;5.974;2023-02-15T17:14:29;7.80;99.90
52107;DHT22;38105;52.968;5.974;2023-02-15T17:17:15;7.70;99.90
52107;DHT22;38105;52.968;5.974;2023-02-15T17:19:48;7.70;99.90
52107;DHT22;38105;52.968;5.974;2023-02-15T17:22:23;7.80;99.90
52107;DHT22;38105;52.968;5.974;2023-02-15T17:24:57;7.70;99.90
52107;DHT22;38105;52.968;5.974;2023-02-15T17:27:28;7.60;99.90
52107;DHT22;38105;52.968;5.974;2023-02-15T17:30:14;7.50;99.90
52107;DHT22;38105;52.968;5.974;2023-02-15T17:32:53;7.50;99.90
52107;DHT22;38105;52.968;5.974;2023-02-15T17:35:22;7.50;99.90
52107;DHT22;38105;52.968;5.974;2023-02-15T17:37:54;7.40;99.90
52107;DHT22;38105;52.968;5.974;2023-02-15T17:40:30;7.30;99.90
52107;DHT22;38105;52.968;5.974;2023-02-15T17:42:56;7.40;99.90
52107;DHT22;38105;52.968;5.974;2023-02-15T17:45:26;7.30;99.90
52107;DHT22;38105;52.968;5.974;2023-02-15T17:47:53;7.30;99.90
52107;DHT22;38105;52.968;5.974;2023-02-15T17:50:21;7.20;99.90
52107;DHT22;38105;52.968;5.974;2023-02-15T17:52:47;7.10;99.90
52107;DHT22;38105;52.968;5.974;2023-02-15T17:55:15;7.20;99.90
52107;DHT22;38105;52.968;5.974;2023-02-15T17:58:01;7.10;99.90
52107;DHT22;38105;52.968;5.974;2023-02-15T18:00:27;7.10;99.90
52107;DHT22;38105;52.968;5.974;2023-02-15T18:03:12;7.00;99.90
52107;DHT22;38105;52.968;5.974;2023-02-15T18:05:57;7.10;99.90
52107;DHT22;38105;52.968;5.974;2023-02-15T18:08:42;6.90;99.90
52107;DHT22;38105;52.968;5.974;2023-02-15T18:11:26;6.90;99.90
52107;DHT22;38105;52.968;5.974;2023-02-15T18:14:09;6.90;99.90
52107;DHT22;38105;52.968;5.974;2023-02-15T18:16:40;6.90;99.90
52107;DHT22;38105;52.968;5.974;2023-02-15T18:19:19;6.90;99.90
52107;DHT22;38105;52.968;5.974;2023-02-15T18:21:46;6.80;99.90
52107;DHT22;38105;52.968;5.974;2023-02-15T18:24:20;6.90;99.90
52107;DHT22;38105;52.968;5.974;2023-02-15T18:26:47;6.80;99.90
52107;DHT22;38105;52.968;5.974;2023-02-15T18:29:13;6.80;99.90
52107;DHT22;38105;52.968;5.974;2023-02-15T18:31:39;6.80;99.90
52107;DHT22;38105;52.968;5.974;2023-02-15T18:34:06;6.70;99.90
52107;DHT22;38105;52.968;5.974;2023-02-15T18:36:40;6.80;99.90
52107;DHT22;38105;52.968;5.974;2023-02-15T18:39:32;6.70;99.90
52107;DHT22;38105;52.968;5.974;2023-02-15T18:41:59;6.70;99.90
52107;DHT22;38105;52.968;5.974;2023-02-15T18:44:25;6.60;99.90
52107;DHT22;38105;52.968;5.974;2023-02-15T18:46:51;6.70;99.90
52107;DHT22;38105;52.968;5.974;2023-02-15T18:49:17;6.70;99.90
52107;DHT22;38105;52.968;5.974;2023-02-15T18:51:43;6.70;99.90
52107;DHT22;38105;52.968;5.974;2023-02-15T18:54:23;6.70;99.90
52107;DHT22;38105;52.968;5.974;2023-02-15T18:56:54;6.50;99.90
52107;DHT22;38105;52.968;5.974;2023-02-15T18:59:21;6.50;99.90
52107;DHT22;38105;52.968;5.974;2023-02-15T19:01:48;6.60;99.90
52107;DHT22;38105;52.968;5.974;2023-02-15T19:04:13;6.50;99.90
52107;DHT22;38105;52.968;5.974;2023-02-15T19:06:43;6.60;99.90
52107;DHT22;38105;52.968;5.974;2023-02-15T19:09:15;6.60;99.90
52107;DHT22;38105;52.968;5.974;2023-02-15T19:11:44;6.60;99.90
52107;DHT22;38105;52.968;5.974;2023-02-15T19:16:49;6.50;99.90
52107;DHT22;38105;52.968;5.974;2023-02-15T19:19:15;6.50;99.90
52107;DHT22;38105;52.968;5.974;2023-02-15T19:21:41;6.60;99.90